| time (UTC) | temp F | wind direction | speed MPH | gust MPH | rain 1hr in | rain 24hr in | rain mn in | humidity % | barometer mb |
| 20260504184747 | 79 | 165 | 6.0 | 11.0 | 0.00 | 0.00 | 0.00 | 24 | 1008.1 |
| 20260504184244 | 79 | 224 | 2.0 | 13.0 | 0.00 | 0.00 | 0.00 | 23 | 1008.0 |
| 20260504183747 | 79 | 164 | 4.0 | 19.0 | 0.00 | 0.00 | 0.00 | 24 | 1008.0 |
| 20260504183244 | 79 | 87 | 8.0 | 15.0 | 0.00 | 0.00 | 0.00 | 25 | 1008.0 |
| 20260504182741 | 79 | 207 | 4.0 | 12.0 | 0.00 | 0.00 | 0.00 | 25 | 1008.5 |
| 20260504182241 | 80 | 96 | 2.0 | 9.0 | 0.00 | 0.00 | 0.00 | 26 | 1008.5 |
| 20260504181741 | 79 | 241 | 4.0 | 8.0 | 0.00 | 0.00 | 0.00 | 24 | 1008.5 |
| 20260504181241 | 79 | 167 | 2.0 | 9.0 | 0.00 | 0.00 | 0.00 | 22 | 1008.5 |
| 20260504180745 | 79 | 173 | 4.0 | 11.0 | 0.00 | 0.00 | 0.00 | 22 | 1008.5 |
| 20260504180241 | 79 | 128 | 4.0 | 11.0 | 0.00 | 0.00 | 0.00 | 23 | 1008.5 |
| 20260504175742 | 79 | 154 | 9.0 | 10.0 | 0.00 | 0.00 | 0.00 | 23 | 1008.6 |
| 20260504175244 | 79 | 156 | 6.0 | 9.0 | 0.00 | 0.00 | 0.00 | 22 | 1008.6 |
| 20260504174745 | 79 | 211 | 1.0 | 7.0 | 0.00 | 0.00 | 0.00 | 24 | 1008.6 |
| 20260504174242 | 78 | 297 | 2.0 | 9.0 | 0.00 | 0.00 | 0.00 | 24 | 1008.8 |
| 20260504173744 | 78 | 267 | 2.0 | 12.0 | 0.00 | 0.00 | 0.00 | 23 | 1008.8 |
| 20260504173241 | 78 | 213 | 4.0 | 11.0 | 0.00 | 0.00 | 0.00 | 24 | 1008.8 |
| 20260504172744 | 78 | 158 | 5.0 | 8.0 | 0.00 | 0.00 | 0.00 | 22 | 1009.0 |
| 20260504172242 | 78 | 170 | 6.0 | 12.0 | 0.00 | 0.00 | 0.00 | 23 | 1009.0 |
| 20260504171741 | 78 | 300 | 1.0 | 7.0 | 0.00 | 0.00 | 0.00 | 25 | 1009.0 |
| 20260504171244 | 78 | 313 | 2.0 | 8.0 | 0.00 | 0.00 | 0.00 | 23 | 1009.3 |
| 20260504170741 | 78 | 271 | 5.0 | 8.0 | 0.00 | 0.00 | 0.00 | 24 | 1009.3 |
| 20260504170247 | 78 | 187 | 1.0 | 10.0 | 0.00 | 0.00 | 0.00 | 25 | 1009.3 |
| 20260504160248 | 75 | 233 | 3.0 | 9.0 | 0.00 | 0.00 | 0.00 | 27 | 1010.0 |
| 20260504150745 | 70 | 185 | 3.0 | 10.0 | 0.00 | 0.00 | 0.00 | 27 | 1010.5 |
| 20260504150244 | 70 | 214 | 3.0 | 11.0 | 0.00 | 0.00 | 0.00 | 28 | 1010.5 |
| 20260504141241 | 62 | 159 | 5.0 | 7.0 | 0.00 | 0.00 | 0.00 | 41 | 1010.6 |
| 20260504140747 | 61 | 169 | 2.0 | 7.0 | 0.00 | 0.00 | 0.00 | 45 | 1010.5 |
| 20260504140241 | 60 | 163 | 1.0 | 6.0 | 0.00 | 0.00 | 0.00 | 46 | 1010.5 |
| 20260504130741 | 54 | 259 | 2.0 | 6.0 | 0.00 | 0.00 | 0.00 | 56 | 1010.9 |
| 20260504130241 | 54 | 179 | 6.0 | 6.0 | 0.00 | 0.00 | 0.00 | 56 | 1010.9 |
| 20260504120241 | 49 | 213 | 4.0 | 5.0 | 0.00 | 0.00 | 0.00 | 67 | 1011.4 |
| 20260504110246 | 46 | 257 | 0.0 | 2.0 | 0.00 | 0.00 | 0.00 | 73 | 1011.5 |
| 20260504100244 | 46 | 257 | 0.0 | 0.0 | 0.00 | 0.00 | 0.00 | 76 | 1011.5 |
| 20260504081744 | 45 | 257 | 0.0 | 0.0 | 0.00 | 0.00 | 0.00 | 76 | 1012.0 |
| 20260504081247 | 45 | 257 | 0.0 | 0.0 | 0.00 | 0.00 | 0.00 | 76 | 1012.0 |
| 20260504080741 | 45 | 257 | 0.0 | 0.0 | 0.00 | 0.00 | 0.00 | 76 | 1012.0 |
| 20260504080244 | 45 | 257 | 0.0 | 0.0 | 0.00 | 0.00 | 0.00 | 76 | 1012.0 |
| 20260504070241 | 44 | 257 | 0.0 | 2.0 | 0.00 | 0.00 | 0.00 | 76 | 1012.2 |
| 20260504060241 | 42 | 257 | 0.0 | 1.0 | 0.00 | 0.00 | 0.00 | 75 | 1012.3 |
| 20260504050742 | 43 | 257 | 0.0 | 1.0 | 0.00 | 0.00 | 0.00 | 72 | 1012.3 |
| 20260504050241 | 43 | 257 | 0.0 | 0.0 | 0.00 | 0.00 | 0.00 | 72 | 1012.3 |
| 20260504045741 | 43 | 257 | 0.0 | 0.0 | 0.00 | 0.00 | 0.00 | 72 | 1012.3 |
| 20260504045242 | 43 | 257 | 0.0 | 1.0 | 0.00 | 0.00 | 0.00 | 71 | 1012.3 |
| 20260504044748 | 43 | 257 | 1.0 | 1.0 | 0.00 | 0.00 | 0.00 | 71 | 1012.3 |
| 20260504044244 | 43 | 257 | 0.0 | 0.0 | 0.00 | 0.00 | 0.00 | 71 | 1012.3 |
| 20260504043744 | 43 | 257 | 0.0 | 0.0 | 0.00 | 0.00 | 0.00 | 71 | 1012.3 |
| 20260504043244 | 43 | 257 | 0.0 | 1.0 | 0.00 | 0.00 | 0.00 | 70 | 1012.3 |
| 20260504042747 | 43 | 257 | 1.0 | 1.0 | 0.00 | 0.00 | 0.00 | 70 | 1012.4 |
| 20260504042241 | 43 | 257 | 0.0 | 0.0 | 0.00 | 0.00 | 0.00 | 70 | 1012.4 |
| 20260504041745 | 43 | 257 | 0.0 | 1.0 | 0.00 | 0.00 | 0.00 | 69 | 1012.4 |
| 20260504041241 | 43 | 257 | 0.0 | 2.0 | 0.00 | 0.00 | 0.00 | 69 | 1012.3 |
| 20260504040748 | 43 | 257 | 0.0 | 0.0 | 0.00 | 0.00 | 0.00 | 69 | 1012.3 |
| 20260504040242 | 43 | 257 | 0.0 | 0.0 | 0.00 | 0.00 | 0.00 | 68 | 1012.3 |
| 20260504035741 | 44 | 257 | 0.0 | 0.0 | 0.00 | 0.00 | 0.00 | 68 | 1012.2 |
| 20260504035242 | 44 | 257 | 0.0 | 1.0 | 0.00 | 0.00 | 0.00 | 68 | 1012.2 |
| 20260504034741 | 44 | 257 | 0.0 | 0.0 | 0.00 | 0.00 | 0.00 | 67 | 1012.2 |
| 20260504034241 | 44 | 257 | 0.0 | 0.0 | 0.00 | 0.00 | 0.00 | 67 | 1012.0 |
| 20260504033742 | 44 | 257 | 0.0 | 0.0 | 0.00 | 0.00 | 0.00 | 67 | 1012.1 |
| 20260504033244 | 45 | 257 | 0.0 | 1.0 | 0.00 | 0.00 | 0.00 | 66 | 1012.1 |
| 20260504032748 | 45 | 257 | 0.0 | 0.0 | 0.00 | 0.00 | 0.00 | 66 | 1011.9 |
| 20260504032241 | 45 | 257 | 0.0 | 1.0 | 0.00 | 0.00 | 0.00 | 66 | 1011.9 |
| 20260504031741 | 45 | 257 | 0.0 | 1.0 | 0.00 | 0.00 | 0.00 | 65 | 1011.9 |
| 20260504031244 | 46 | 257 | 1.0 | 1.0 | 0.00 | 0.00 | 0.00 | 65 | 1011.8 |
| 20260504030747 | 46 | 257 | 0.0 | 0.0 | 0.00 | 0.00 | 0.00 | 65 | 1011.8 |
| 20260504030244 | 46 | 257 | 0.0 | 0.0 | 0.00 | 0.00 | 0.00 | 63 | 1011.8 |
| 20260504025744 | 46 | 257 | 0.0 | 1.0 | 0.00 | 0.00 | 0.00 | 63 | 1011.8 |
| 20260504025241 | 47 | 257 | 0.0 | 1.0 | 0.00 | 0.00 | 0.00 | 62 | 1011.8 |
| 20260504024748 | 47 | 257 | 0.0 | 0.0 | 0.00 | 0.00 | 0.00 | 62 | 1011.8 |
| 20260504024247 | 47 | 257 | 0.0 | 0.0 | 0.00 | 0.00 | 0.00 | 62 | 1011.8 |
| 20260504023750 | 47 | 257 | 0.0 | 0.0 | 0.00 | 0.00 | 0.00 | 61 | 1011.8 |
| 20260504023241 | 47 | 257 | 0.0 | 0.0 | 0.00 | 0.00 | 0.00 | 61 | 1011.8 |
| 20260504022741 | 48 | 257 | 0.0 | 0.0 | 0.00 | 0.00 | 0.00 | 60 | 1011.8 |
| 20260504022248 | 48 | 257 | 0.0 | 1.0 | 0.00 | 0.00 | 0.00 | 59 | 1011.8 |
| 20260504021745 | 48 | 257 | 0.0 | 1.0 | 0.00 | 0.00 | 0.00 | 58 | 1011.8 |
| 20260504021241 | 49 | 257 | 1.0 | 2.0 | 0.00 | 0.00 | 0.00 | 57 | 1011.8 |
| 20260504020741 | 49 | 257 | 0.0 | 0.0 | 0.00 | 0.00 | 0.00 | 57 | 1011.8 |
| 20260504020247 | 49 | 257 | 0.0 | 0.0 | 0.00 | 0.00 | 0.00 | 56 | 1011.8 |
| 20260504015745 | 50 | 257 | 0.0 | 0.0 | 0.00 | 0.00 | 0.00 | 56 | 1011.7 |
| 20260504015244 | 50 | 257 | 0.0 | 0.0 | 0.00 | 0.00 | 0.00 | 54 | 1011.7 |
| 20260504014747 | 50 | 257 | 0.0 | 1.0 | 0.00 | 0.00 | 0.00 | 54 | 1011.7 |
| 20260504014242 | 51 | 257 | 1.0 | 2.0 | 0.00 | 0.00 | 0.00 | 53 | 1011.7 |
| 20260504013747 | 51 | 257 | 0.0 | 0.0 | 0.00 | 0.00 | 0.00 | 51 | 1011.7 |
| 20260504013241 | 51 | 257 | 0.0 | 0.0 | 0.00 | 0.00 | 0.00 | 51 | 1011.7 |
| 20260504012744 | 51 | 257 | 0.0 | 0.0 | 0.00 | 0.00 | 0.00 | 50 | 1011.5 |
| 20260504012244 | 52 | 257 | 0.0 | 0.0 | 0.00 | 0.00 | 0.00 | 50 | 1011.5 |
| 20260504011744 | 52 | 257 | 0.0 | 0.0 | 0.00 | 0.00 | 0.00 | 49 | 1011.5 |
| 20260504011241 | 53 | 257 | 0.0 | 0.0 | 0.00 | 0.00 | 0.00 | 49 | 1011.4 |
| 20260504010745 | 53 | 257 | 0.0 | 1.0 | 0.00 | 0.00 | 0.00 | 47 | 1011.4 |
| 20260504010242 | 54 | 257 | 0.0 | 1.0 | 0.00 | 0.00 | 0.00 | 45 | 1011.4 |
| 20260504005747 | 54 | 257 | 0.0 | 0.0 | 0.00 | 0.00 | 0.00 | 45 | 1011.3 |
| 20260504005241 | 55 | 257 | 0.0 | 0.0 | 0.00 | 0.00 | 0.00 | 44 | 1011.3 |
| 20260504004742 | 55 | 257 | 0.0 | 0.0 | 0.00 | 0.00 | 0.00 | 42 | 1011.3 |
| 20260504004244 | 55 | 257 | 0.0 | 0.0 | 0.00 | 0.00 | 0.00 | 42 | 1011.2 |
| 20260504003741 | 56 | 257 | 0.0 | 0.0 | 0.00 | 0.00 | 0.00 | 42 | 1011.2 |
| 20260504003241 | 57 | 257 | 0.0 | 0.0 | 0.00 | 0.00 | 0.00 | 40 | 1011.2 |
| 20260504002747 | 57 | 257 | 0.0 | 1.0 | 0.00 | 0.00 | 0.00 | 38 | 1011.0 |
| 20260504002244 | 58 | 257 | 0.0 | 0.0 | 0.00 | 0.00 | 0.00 | 34 | 1011.0 |
| 20260504001741 | 58 | 257 | 0.0 | 0.0 | 0.00 | 0.00 | 0.00 | 35 | 1011.0 |
| 20260504001241 | 58 | 257 | 0.0 | 0.0 | 0.00 | 0.00 | 0.00 | 37 | 1010.9 |
| 20260504000745 | 59 | 257 | 0.0 | 0.0 | 0.00 | 0.00 | 0.00 | 34 | 1010.9 |
| 20260504000242 | 59 | 257 | 0.0 | 1.0 | 0.00 | 0.00 | 0.00 | 33 | 1010.9 |
| 20260503235741 | 60 | 257 | 0.0 | 1.0 | 0.00 | 0.00 | 0.00 | 28 | 1010.8 |
| 20260503235241 | 60 | 257 | 0.0 | 1.0 | 0.00 | 0.00 | 0.00 | 27 | 1010.8 |
| 20260503234741 | 60 | 257 | 0.0 | 2.0 | 0.00 | 0.00 | 0.00 | 27 | 1010.8 |
| 20260503234250 | 60 | 257 | 0.0 | 3.0 | 0.00 | 0.00 | 0.00 | 28 | 1010.7 |
| 20260503233741 | 60 | 257 | 1.0 | 3.0 | 0.00 | 0.00 | 0.00 | 27 | 1010.7 |
| 20260503233241 | 60 | 257 | 3.0 | 6.0 | 0.00 | 0.00 | 0.00 | 26 | 1010.7 |
| 20260503232741 | 61 | 257 | 1.0 | 6.0 | 0.00 | 0.00 | 0.00 | 26 | 1010.4 |
| 20260503232244 | 61 | 260 | 2.0 | 10.0 | 0.00 | 0.00 | 0.00 | 25 | 1010.4 |
| 20260503231741 | 61 | 269 | 4.0 | 9.0 | 0.00 | 0.00 | 0.00 | 25 | 1010.4 |
| 20260503231241 | 61 | 243 | 3.0 | 7.0 | 0.00 | 0.00 | 0.00 | 25 | 1010.3 |
| 20260503230744 | 61 | 267 | 6.0 | 9.0 | 0.00 | 0.00 | 0.00 | 25 | 1010.3 |
| 20260503230241 | 61 | 225 | 5.0 | 11.0 | 0.00 | 0.00 | 0.00 | 25 | 1010.3 |
| 20260503225742 | 62 | 263 | 2.0 | 8.0 | 0.00 | 0.00 | 0.00 | 25 | 1010.6 |
| 20260503225244 | 62 | 232 | 4.0 | 9.0 | 0.00 | 0.00 | 0.00 | 24 | 1010.6 |
| 20260503224741 | 62 | 257 | 1.0 | 7.0 | 0.00 | 0.00 | 0.00 | 25 | 1010.6 |
| 20260503224241 | 62 | 264 | 2.0 | 9.0 | 0.00 | 0.00 | 0.00 | 25 | 1010.6 |
| 20260503223744 | 62 | 296 | 7.0 | 7.0 | 0.00 | 0.00 | 0.00 | 25 | 1010.6 |
| 20260503223242 | 62 | 342 | 1.0 | 11.0 | 0.00 | 0.00 | 0.00 | 26 | 1010.6 |
| 20260503222747 | 62 | 306 | 4.0 | 7.0 | 0.00 | 0.00 | 0.00 | 26 | 1010.5 |
| 20260503222244 | 62 | 239 | 1.0 | 13.0 | 0.00 | 0.00 | 0.00 | 24 | 1010.5 |
| 20260503221741 | 62 | 282 | 4.0 | 10.0 | 0.00 | 0.00 | 0.00 | 25 | 1010.5 |
| 20260503221244 | 62 | 325 | 2.0 | 9.0 | 0.00 | 0.00 | 0.00 | 26 | 1010.7 |
| 20260503220744 | 62 | 263 | 1.0 | 9.0 | 0.00 | 0.00 | 0.00 | 25 | 1010.7 |
| 20260503220241 | 62 | 13 | 4.0 | 11.0 | 0.00 | 0.00 | 0.00 | 25 | 1010.7 |
| 20260503215741 | 62 | 281 | 6.0 | 7.0 | 0.00 | 0.00 | 0.00 | 26 | 1010.7 |
| 20260503215250 | 62 | 319 | 3.0 | 11.0 | 0.00 | 0.00 | 0.00 | 24 | 1010.6 |
| 20260503214745 | 62 | 42 | 3.0 | 12.0 | 0.00 | 0.00 | 0.00 | 25 | 1010.6 |
| 20260503214241 | 62 | 292 | 6.0 | 13.0 | 0.00 | 0.00 | 0.00 | 24 | 1010.5 |
| 20260503213741 | 63 | 253 | 3.0 | 12.0 | 0.00 | 0.00 | 0.00 | 25 | 1010.5 |
| 20260503213241 | 63 | 268 | 3.0 | 8.0 | 0.00 | 0.00 | 0.00 | 24 | 1010.5 |
| 20260503212747 | 63 | 327 | 4.0 | 14.0 | 0.00 | 0.00 | 0.00 | 24 | 1010.4 |
| 20260503212244 | 63 | 270 | 4.0 | 10.0 | 0.00 | 0.00 | 0.00 | 25 | 1010.4 |
| 20260503211741 | 63 | 24 | 5.0 | 9.0 | 0.00 | 0.00 | 0.00 | 25 | 1010.4 |
| 20260503211241 | 63 | 261 | 4.0 | 12.0 | 0.00 | 0.00 | 0.00 | 25 | 1010.6 |
| 20260503210741 | 63 | 24 | 5.0 | 13.0 | 0.00 | 0.00 | 0.00 | 25 | 1010.6 |
| 20260503210244 | 63 | 246 | 1.0 | 10.0 | 0.00 | 0.00 | 0.00 | 25 | 1010.6 |
| 20260503205747 | 63 | 342 | 9.0 | 12.0 | 0.00 | 0.00 | 0.00 | 26 | 1010.6 |
| 20260503205244 | 63 | 0 | 7.0 | 10.0 | 0.00 | 0.00 | 0.00 | 26 | 1010.6 |
| 20260503204747 | 63 | 332 | 6.0 | 8.0 | 0.00 | 0.00 | 0.00 | 28 | 1010.6 |
| 20260503204247 | 62 | 5 | 6.0 | 14.0 | 0.00 | 0.00 | 0.00 | 25 | 1010.7 |
| 20260503203751 | 63 | 314 | 4.0 | 12.0 | 0.00 | 0.00 | 0.00 | 25 | 1010.7 |
| 20260503203248 | 62 | 238 | 2.0 | 14.0 | 0.00 | 0.00 | 0.00 | 25 | 1010.7 |
| 20260503202746 | 62 | 19 | 4.0 | 12.0 | 0.00 | 0.00 | 0.00 | 26 | 1010.7 |
| 20260503202241 | 63 | 333 | 6.0 | 8.0 | 0.00 | 0.00 | 0.00 | 25 | 1010.7 |
| 20260503201747 | 64 | 5 | 6.0 | 11.0 | 0.00 | 0.00 | 0.00 | 25 | 1010.7 |
| 20260503201247 | 64 | 266 | 4.0 | 10.0 | 0.00 | 0.00 | 0.00 | 24 | 1011.1 |
| 20260503200742 | 63 | 220 | 3.0 | 11.0 | 0.00 | 0.00 | 0.00 | 26 | 1011.1 |
| 20260503200247 | 63 | 314 | 3.0 | 12.0 | 0.00 | 0.00 | 0.00 | 26 | 1011.1 |
| 20260503195744 | 63 | 274 | 2.0 | 13.0 | 0.00 | 0.00 | 0.00 | 26 | 1011.3 |
| 20260503195241 | 63 | 231 | 2.0 | 17.0 | 0.00 | 0.00 | 0.00 | 24 | 1011.3 |
| 20260503194744 | 63 | 246 | 6.0 | 14.0 | 0.00 | 0.00 | 0.00 | 26 | 1011.3 |
| 20260503194248 | 64 | 273 | 2.0 | 9.0 | 0.00 | 0.00 | 0.00 | 26 | 1011.5 |
| 20260503193750 | 64 | 258 | 2.0 | 10.0 | 0.00 | 0.00 | 0.00 | 27 | 1011.5 |
| 20260503193242 | 63 | 335 | 4.0 | 17.0 | 0.00 | 0.00 | 0.00 | 28 | 1011.5 |
| 20260503192750 | 63 | 28 | 4.0 | 11.0 | 0.00 | 0.00 | 0.00 | 27 | 1011.6 |
| 20260503192247 | 62 | 270 | 2.0 | 13.0 | 0.00 | 0.00 | 0.00 | 27 | 1011.6 |
| 20260503191744 | 62 | 242 | 7.0 | 11.0 | 0.00 | 0.00 | 0.00 | 28 | 1011.6 |
| 20260503191242 | 62 | 9 | 3.0 | 12.0 | 0.00 | 0.00 | 0.00 | 29 | 1011.7 |
| 20260503190744 | 61 | 239 | 2.0 | 12.0 | 0.00 | 0.00 | 0.00 | 27 | 1011.7 |
| 20260503190245 | 62 | 313 | 2.0 | 13.0 | 0.00 | 0.00 | 0.00 | 27 | 1011.7 |
| 20260503185742 | 63 | 272 | 7.0 | 12.0 | 0.00 | 0.00 | 0.00 | 27 | 1011.7 |
| 20260503185244 | 63 | 244 | 7.0 | 14.0 | 0.00 | 0.00 | 0.00 | 27 | 1011.7 |